Time;durP1;ratioP1;P1;durP2;ratioP2;P2;SDS_P1;SDS_P2;PMS_P1;PMS_P2;Temp;Humidity;BMP_temperature;BMP_pressure;BME280_temperature;BME280_humidity;BME280_pressure;Samples;Min_cycle;Max_cycle;Signal;HPM_P1;HPM_P2
2022/06/24 00:00:41;;;;;;;4.80;4.00;;;;;;;25.28;45.29;94960.88;6126213;28;103492;-52
2022/06/24 00:03:45;;;;;;;4.47;3.90;;;;;;;25.27;45.56;94962.00;6130513;28;103853;-52
2022/06/24 00:06:49;;;;;;;5.80;4.83;;;;;;;25.19;45.42;94968.19;6136439;28;103884;-52
2022/06/24 00:09:53;;;;;;;4.50;4.10;;;;;;;25.16;45.72;94968.06;6131053;28;103830;-53
2022/06/24 00:12:56;;;;;;;7.50;6.43;;;;;;;25.17;46.14;94973.09;6134355;28;106662;-53
2022/06/24 00:16:02;;;;;;;7.00;6.30;;;;;;;25.17;46.25;94973.09;6137483;28;105358;-53
2022/06/24 00:19:10;;;;;;;6.87;5.67;;;;;;;25.09;46.29;94964.03;6136170;28;104857;-54
2022/06/24 00:22:14;;;;;;;7.17;5.90;;;;;;;25.14;46.15;94975.63;6126673;28;104266;-53
2022/06/24 00:25:20;;;;;;;7.30;6.13;;;;;;;25.18;46.22;94989.94;6137629;28;105108;-53
2022/06/24 00:28:26;;;;;;;6.07;5.57;;;;;;;25.20;46.13;94980.47;6135752;28;104931;-53
2022/06/24 00:31:29;;;;;;;5.80;5.30;;;;;;;25.17;46.03;94981.13;6135905;28;103984;-54
2022/06/24 00:34:34;;;;;;;5.77;5.33;;;;;;;25.19;45.95;94994.19;6125755;28;104879;-53
2022/06/24 00:37:38;;;;;;;5.80;4.67;;;;;;;25.22;45.98;94988.19;6135717;28;103813;-54
2022/06/24 00:40:43;;;;;;;4.97;4.47;;;;;;;25.20;46.11;94990.41;6136327;28;103827;-53
2022/06/24 00:43:50;;;;;;;5.23;4.73;;;;;;;25.21;46.35;95000.81;6128163;28;103865;-53
2022/06/24 00:46:58;;;;;;;4.97;4.57;;;;;;;25.23;46.32;94998.59;6130163;28;104231;-53
2022/06/24 00:50:07;;;;;;;5.60;5.07;;;;;;;25.20;45.84;94995.75;6135710;28;104883;-53
2022/06/24 00:53:10;;;;;;;4.67;4.33;;;;;;;25.25;46.09;94993.69;6136933;28;103749;-53
2022/06/24 00:56:16;;;;;;;4.60;4.20;;;;;;;25.24;45.89;94988.66;6125242;28;104967;-53
2022/06/24 00:59:20;;;;;;;6.03;4.83;;;;;;;25.26;45.86;94989.88;6135744;28;105097;-53
2022/06/24 01:02:24;;;;;;;4.87;4.50;;;;;;;25.27;45.91;94990.66;6136246;28;104550;-53
2022/06/24 01:05:29;;;;;;;5.43;4.93;;;;;;;25.30;45.72;94998.06;6135392;28;105545;-53
2022/06/24 01:08:32;;;;;;;5.07;4.67;;;;;;;25.20;46.00;94995.75;6124889;28;103897;-54
2022/06/24 01:11:40;;;;;;;6.20;4.00;;;;;;;25.17;45.60;94996.41;6135767;28;103918;-53
2022/06/24 01:14:43;;;;;;;4.13;3.73;;;;;;;25.12;45.27;94999.28;6134916;28;103851;-54
2022/06/24 01:17:46;;;;;;;3.83;3.53;;;;;;;25.16;44.84;95005.56;6130514;28;103892;-54
2022/06/24 01:20:50;;;;;;;5.77;3.70;;;;;;;25.11;44.99;94997.72;6128409;28;103699;-53
2022/06/24 01:24:03;;;;;;;4.53;4.13;;;;;;;25.05;45.05;95002.50;6135675;28;103821;-54
2022/06/24 01:27:06;;;;;;;4.33;3.93;;;;;;;25.01;44.69;95004.22;6125690;28;104019;-53
2022/06/24 01:30:11;;;;;;;4.10;3.70;;;;;;;24.95;45.16;95003.66;6125840;28;103880;-54
2022/06/24 01:33:14;;;;;;;3.00;2.80;;;;;;;24.94;44.70;94991.38;6135548;28;105299;-53
2022/06/24 01:36:17;;;;;;;4.60;3.80;;;;;;;24.94;44.62;94996.72;6134457;28;103873;-53
2022/06/24 01:39:22;;;;;;;3.97;3.50;;;;;;;24.93;44.83;94997.84;6132566;28;103661;-55
2022/06/24 01:42:25;;;;;;;4.00;3.70;;;;;;;24.98;44.94;94994.97;6123606;28;103543;-56
2022/06/24 01:45:28;;;;;;;3.97;3.20;;;;;;;24.90;45.01;94987.78;6132683;28;103469;-56
2022/06/24 01:48:31;;;;;;;4.97;3.30;;;;;;;24.90;44.80;94992.34;6133014;28;102804;-56
2022/06/24 01:51:37;;;;;;;7.40;3.40;;;;;;;24.83;44.84;94979.47;6128734;28;104253;-56
2022/06/24 01:54:42;;;;;;;5.10;2.80;;;;;;;24.83;45.17;94982.16;6128453;28;104896;-55
2022/06/24 01:57:45;;;;;;;3.80;3.33;;;;;;;24.88;45.04;94989.22;6133586;28;103814;-56
2022/06/24 02:00:48;;;;;;;4.20;2.83;;;;;;;24.96;44.39;94985.69;6135994;28;103690;-56
2022/06/24 02:03:51;;;;;;;3.70;3.40;;;;;;;24.97;45.02;94971.97;6117668;28;104997;-56
2022/06/24 02:06:54;;;;;;;3.93;3.53;;;;;;;24.93;44.55;94960.34;6136004;28;103948;-56
2022/06/24 02:13:28;;;;;;;3.63;3.27;;;;;;;24.90;44.78;94950.31;6136183;28;103734;-55
2022/06/24 02:16:32;;;;;;;3.20;2.93;;;;;;;24.93;44.71;94943.50;6123962;28;104225;-55
2022/06/24 02:19:35;;;;;;;4.93;3.93;;;;;;;24.99;44.18;94948.34;6133880;28;103716;-56
2022/06/24 02:22:38;;;;;;;4.40;4.10;;;;;;;25.03;44.73;94965.34;6129555;28;104014;-56
2022/06/24 02:25:43;;;;;;;4.13;3.30;;;;;;;25.04;44.54;94968.81;6130357;28;103893;-56
2022/06/24 02:28:46;;;;;;;5.13;2.93;;;;;;;24.98;44.91;94967.41;6129181;28;103862;-56
2022/06/24 02:31:49;;;;;;;4.27;3.20;;;;;;;24.99;44.40;94966.28;6134507;28;104390;-56
2022/06/24 02:34:52;;;;;;;5.20;3.00;;;;;;;24.96;44.63;94969.63;6132961;28;103834;-56
2022/06/24 02:37:55;;;;;;;3.43;3.13;;;;;;;24.98;44.66;94976.22;6125443;28;103535;-56
2022/06/24 02:41:00;;;;;;;5.93;3.47;;;;;;;25.01;44.49;94977.47;6134296;28;104036;-56
2022/06/24 02:44:03;;;;;;;3.70;3.27;;;;;;;25.05;44.44;94983.75;6127368;28;104976;-59
2022/06/24 02:47:06;;;;;;;3.80;3.40;;;;;;;25.11;44.53;94979.75;6133926;28;103715;-57
2022/06/24 02:50:09;;;;;;;4.17;3.87;;;;;;;25.12;44.24;94988.56;6123364;28;104324;-60
2022/06/24 02:53:14;;;;;;;3.57;3.37;;;;;;;25.14;44.06;94975.63;6134516;28;104837;-58
2022/06/24 02:56:19;;;;;;;3.27;2.87;;;;;;;25.15;44.12;94972.63;6132426;28;103883;-57
2022/06/24 02:59:22;;;;;;;9.10;8.27;;;;;;;25.15;44.43;94979.88;6134960;28;103814;-57
2022/06/24 03:02:26;;;;;;;8.47;7.63;;;;;;;25.10;43.75;94970.16;6121173;28;103713;-57
2022/06/24 03:05:29;;;;;;;7.00;5.37;;;;;;;25.05;44.05;94971.16;6134225;28;104845;-57
2022/06/24 03:08:33;;;;;;;6.23;5.63;;;;;;;25.02;43.96;94963.75;6134934;28;103940;-57
2022/06/24 03:11:38;;;;;;;7.50;6.90;;;;;;;25.03;44.06;94980.59;6130555;28;104741;-56
2022/06/24 03:14:41;;;;;;;13.93;10.60;;;;;;;24.78;44.78;94974.31;6137818;28;102819;-56
2022/06/24 03:17:47;;;;;;;6.10;5.53;;;;;;;24.42;45.61;94978.25;6138023;28;103477;-56
2022/06/24 03:20:50;;;;;;;5.50;4.30;;;;;;;24.25;45.92;94977.53;6136717;28;103670;-56
2022/06/24 03:23:53;;;;;;;5.97;4.60;;;;;;;23.99;46.58;94980.25;6125337;28;103577;-57
2022/06/24 03:26:58;;;;;;;5.90;4.30;;;;;;;23.85;46.72;94980.44;6138766;28;104768;-56
2022/06/24 03:30:01;;;;;;;4.80;4.40;;;;;;;24.02;46.23;94985.00;6137806;28;106263;-56
2022/06/24 03:33:05;;;;;;;6.13;4.37;;;;;;;24.26;46.16;94979.91;6135193;28;105250;-56
2022/06/24 03:36:12;;;;;;;4.70;4.30;;;;;;;24.48;45.47;94992.22;6125651;28;103760;-56
2022/06/24 03:39:15;;;;;;;3.93;3.63;;;;;;;24.57;45.31;94989.53;6129644;28;105253;-56
2022/06/24 03:42:19;;;;;;;6.13;4.70;;;;;;;24.70;45.03;94999.25;6137740;28;104045;-58
2022/06/24 03:45:23;;;;;;;26.10;23.50;;;;;;;24.80;44.93;94996.19;6118499;28;105120;-58
2022/06/24 03:48:26;;;;;;;21.50;19.40;;;;;;;24.86;44.90;94994.88;6109458;28;104130;-56
2022/06/24 03:51:29;;;;;;;12.10;9.83;;;;;;;24.82;45.00;94982.47;6136439;28;104030;-58
2022/06/24 03:54:32;;;;;;;10.07;6.90;;;;;;;24.88;46.97;94984.66;6135365;28;103936;-59
2022/06/24 03:57:37;;;;;;;8.23;7.40;;;;;;;24.95;46.61;94987.59;6125755;28;104129;-58
2022/06/24 04:00:40;;;;;;;8.80;7.33;;;;;;;25.02;45.88;94995.88;6136937;28;104337;-69
2022/06/24 04:03:43;;;;;;;9.87;6.87;;;;;;;25.08;46.06;94994.59;6131189;28;103764;-58
2022/06/24 04:06:47;;;;;;;7.60;6.90;;;;;;;25.16;47.15;94990.28;6128678;28;103724;-58
2022/06/24 04:09:50;;;;;;;7.70;6.90;;;;;;;25.21;47.45;94976.69;6106645;28;104068;-58
2022/06/24 04:12:54;;;;;;;11.40;7.13;;;;;;;25.22;47.30;94977.50;6124035;28;103865;-58
2022/06/24 04:15:57;;;;;;;9.53;7.63;;;;;;;25.21;47.65;94982.06;6122758;28;103808;-58
2022/06/24 04:19:00;;;;;;;11.63;6.57;;;;;;;25.29;48.34;94983.09;6114097;28;105017;-57
2022/06/24 04:22:04;;;;;;;9.87;6.43;;;;;;;25.29;47.39;94989.22;6119618;28;103923;-57
2022/06/24 04:25:08;;;;;;;9.63;6.43;;;;;;;25.16;46.82;94986.81;6132681;28;103652;-58
2022/06/24 04:28:13;;;;;;;12.73;6.50;;;;;;;25.08;47.45;94999.16;6136213;28;103865;-57
2022/06/24 04:31:16;;;;;;;10.33;5.50;;;;;;;25.05;46.48;94997.13;6126205;28;105387;-57
2022/06/24 04:34:20;;;;;;;8.87;4.40;;;;;;;25.04;46.03;95008.97;6135921;28;103648;-56
2022/06/24 04:37:23;;;;;;;10.20;4.40;;;;;;;24.94;45.81;95018.16;6136441;28;104009;-57
2022/06/24 04:40:26;;;;;;;9.83;4.27;;;;;;;24.92;45.70;95014.22;6136151;28;103864;-56
2022/06/24 04:43:30;;;;;;;7.97;4.57;;;;;;;24.72;46.57;95016.53;6124660;28;103656;-56
2022/06/24 04:46:33;;;;;;;8.40;4.27;;;;;;;24.72;46.59;95026.47;6135088;28;103620;-57
2022/06/24 04:49:37;;;;;;;5.97;4.23;;;;;;;24.72;46.62;95040.63;6134920;28;103743;-57
2022/06/24 04:52:41;;;;;;;7.17;4.80;;;;;;;24.54;46.89;95035.66;6135699;28;104009;-56
2022/06/24 04:55:44;;;;;;;8.13;4.70;;;;;;;24.40;47.08;95028.63;6123731;28;103920;-57
2022/06/24 04:58:49;;;;;;;5.43;4.93;;;;;;;24.29;47.32;95015.91;6137301;28;103948;-74
2022/06/24 05:01:52;;;;;;;7.23;5.03;;;;;;;24.40;47.16;95027.84;6137070;28;104039;-57
2022/06/24 05:04:55;;;;;;;7.27;6.00;;;;;;;24.46;46.89;95031.88;6132276;28;104048;-57
2022/06/24 05:07:58;;;;;;;10.13;6.10;;;;;;;24.63;46.83;95031.03;6134240;28;104072;-57
2022/06/24 05:11:01;;;;;;;7.80;6.60;;;;;;;24.45;46.61;95031.09;6137099;28;103984;-57
2022/06/24 05:14:06;;;;;;;6.93;6.30;;;;;;;24.49;46.55;95026.69;6136798;28;103815;-58
2022/06/24 05:17:09;;;;;;;9.63;5.70;;;;;;;24.60;46.52;95032.47;6125950;28;104868;-56
2022/06/24 05:20:12;;;;;;;8.37;7.27;;;;;;;24.61;46.52;95038.59;6136816;28;104157;-58
2022/06/24 05:23:16;;;;;;;8.03;7.23;;;;;;;24.67;46.49;95042.66;6137339;28;104924;-56
2022/06/24 05:26:20;;;;;;;7.93;7.13;;;;;;;24.71;46.18;95043.63;6135965;28;103644;-56
2022/06/24 05:29:24;;;;;;;8.03;6.70;;;;;;;24.81;46.48;95045.16;6126541;28;103783;-56
2022/06/24 05:32:28;;;;;;;8.73;7.60;;;;;;;24.86;46.13;95056.44;6135315;28;103797;-57
2022/06/24 05:35:32;;;;;;;8.00;7.13;;;;;;;24.91;46.12;95067.00;6136567;28;103790;-59
2022/06/24 05:38:35;;;;;;;8.50;7.00;;;;;;;24.95;46.24;95062.53;6130798;28;104006;-57
2022/06/24 05:41:39;;;;;;;9.97;7.43;;;;;;;24.99;45.80;95068.81;6106553;28;104119;-58
2022/06/24 05:44:44;;;;;;;7.17;6.10;;;;;;;25.01;45.91;95069.28;6112665;28;103702;-56
2022/06/24 05:47:47;;;;;;;7.47;6.87;;;;;;;24.99;46.03;95063.47;6112887;28;104556;-57
2022/06/24 05:50:50;;;;;;;10.13;6.77;;;;;;;24.81;46.90;95064.66;6102269;28;106983;-57
2022/06/24 05:57:17;;;;;;;8.63;6.47;;;;;;;24.92;46.50;95065.09;6110879;28;103830;-58
2022/06/24 06:00:22;;;;;;;9.37;6.33;;;;;;;24.87;46.99;95063.38;6111971;28;103955;-58
2022/06/24 06:03:27;;;;;;;10.40;6.60;;;;;;;25.00;46.47;95083.00;6102015;28;104283;-58
2022/06/24 06:06:30;;;;;;;7.40;6.70;;;;;;;25.00;46.31;95089.13;6112181;28;104253;-58
2022/06/24 06:09:34;;;;;;;7.53;6.13;;;;;;;25.06;46.18;95079.81;6111204;28;103718;-58
2022/06/24 06:12:37;;;;;;;8.47;6.53;;;;;;;25.07;46.48;95073.34;6107243;28;104820;-58
2022/06/24 06:15:42;;;;;;;7.07;6.37;;;;;;;25.07;46.68;95049.25;6105830;28;103954;-57
2022/06/24 06:18:48;;;;;;;7.90;6.57;;;;;;;25.13;46.91;95043.69;6112458;28;105602;-57
2022/06/24 06:21:51;;;;;;;11.13;6.63;;;;;;;25.21;46.64;95040.97;6112441;28;104782;-59
2022/06/24 06:24:55;;;;;;;6.70;6.10;;;;;;;25.29;46.19;95032.09;6102078;28;104647;-56
2022/06/24 06:27:58;;;;;;;6.10;5.50;;;;;;;25.39;46.46;95030.97;6111685;28;105390;-57
2022/06/24 06:31:04;;;;;;;7.40;5.93;;;;;;;25.42;46.34;95045.59;6111507;28;105065;-57
2022/06/24 06:34:07;;;;;;;6.27;5.63;;;;;;;25.44;46.49;95046.81;6111253;28;103868;-57
2022/06/24 06:37:11;;;;;;;6.70;6.10;;;;;;;25.47;46.48;95050.75;6100414;28;104063;-57
2022/06/24 06:40:14;;;;;;;6.90;6.07;;;;;;;25.47;46.35;95043.50;6125050;28;105029;-57
2022/06/24 06:43:17;;;;;;;6.00;5.37;;;;;;;25.49;46.76;95041.25;6134885;28;103764;-57
2022/06/24 06:46:22;;;;;;;6.20;5.60;;;;;;;25.48;47.15;95034.34;6138540;28;103912;-56
2022/06/24 06:49:25;;;;;;;7.63;5.17;;;;;;;25.56;47.11;95035.41;6128504;28;103616;-57
2022/06/24 06:52:28;;;;;;;7.37;5.60;;;;;;;25.61;46.99;95022.56;6139271;28;103981;-57
2022/06/24 06:55:32;;;;;;;6.67;6.03;;;;;;;25.67;46.32;95029.28;6139191;28;103723;-57
2022/06/24 06:58:35;;;;;;;6.30;5.70;;;;;;;25.67;46.70;95028.50;6130363;28;103977;-57
2022/06/24 07:01:39;;;;;;;5.90;5.40;;;;;;;25.74;46.27;95017.25;6138749;28;103715;-57
2022/06/24 07:04:43;;;;;;;5.97;5.10;;;;;;;25.76;46.31;95017.72;6139221;28;103814;-57
2022/06/24 07:07:46;;;;;;;5.60;5.20;;;;;;;25.85;46.17;95015.72;6139211;28;104118;-58
2022/06/24 07:10:49;;;;;;;5.53;5.13;;;;;;;25.88;46.08;95005.16;6129214;28;105445;-57
2022/06/24 07:13:54;;;;;;;5.23;4.83;;;;;;;25.90;46.14;95013.63;6139499;28;103476;-59
2022/06/24 07:16:59;;;;;;;5.10;4.70;;;;;;;25.93;46.33;95012.19;6139018;28;103798;-57
2022/06/24 07:20:03;;;;;;;5.60;5.10;;;;;;;25.96;45.89;95012.31;6139845;28;104825;-56
2022/06/24 07:23:06;;;;;;;5.13;4.73;;;;;;;25.95;45.67;95009.94;6128592;28;104387;-57
2022/06/24 07:26:09;;;;;;;5.00;4.60;;;;;;;25.96;45.55;95012.31;6139793;28;105385;-57
2022/06/24 07:29:12;;;;;;;5.00;4.60;;;;;;;25.93;45.98;95006.81;6138288;28;103737;-57
2022/06/24 07:32:17;;;;;;;5.23;4.70;;;;;;;25.97;45.60;95019.22;6133817;28;103918;-58
2022/06/24 07:35:20;;;;;;;5.10;4.80;;;;;;;26.02;45.38;95015.56;6133055;28;103713;-57
2022/06/24 07:38:43;;;;;;;4.70;4.40;;;;;;;26.05;45.42;95003.44;6136964;28;106014;-57
2022/06/24 07:41:46;;;;;;;5.23;4.77;;;;;;;26.11;45.41;95013.59;6114730;28;103829;-57
2022/06/24 07:44:49;;;;;;;5.13;4.63;;;;;;;26.13;44.68;95011.38;6103770;28;103973;-58
2022/06/24 07:47:54;;;;;;;6.43;5.00;;;;;;;26.17;45.13;95006.13;6115233;28;105083;-60
2022/06/24 07:50:57;;;;;;;4.97;4.57;;;;;;;26.19;45.44;94999.28;6114942;28;103750;-57
2022/06/24 07:54:00;;;;;;;4.90;4.60;;;;;;;26.21;44.99;95007.81;6114025;28;104299;-57
2022/06/24 07:57:03;;;;;;;4.70;4.33;;;;;;;26.21;45.08;94997.09;6104117;28;105167;-57
2022/06/24 08:00:07;;;;;;;7.27;4.63;;;;;;;26.24;44.75;94995.63;6113336;28;103294;-57
2022/06/24 08:03:16;;;;;;;4.53;4.17;;;;;;;26.27;45.20;94994.97;6114202;28;104169;-57
2022/06/24 08:06:20;;;;;;;4.73;4.33;;;;;;;26.27;44.74;94995.75;6108713;28;103926;-62
2022/06/24 08:09:25;;;;;;;5.40;4.27;;;;;;;26.26;44.82;94988.81;6108678;28;103990;-58
2022/06/24 08:12:28;;;;;;;4.87;4.37;;;;;;;26.22;44.93;95004.03;6114546;28;103764;-57
2022/06/24 08:15:32;;;;;;;6.70;4.70;;;;;;;26.21;44.59;94997.09;6113786;28;105036;-57
2022/06/24 08:18:36;;;;;;;5.20;4.27;;;;;;;26.17;44.89;94996.16;6102689;28;103864;-57
2022/06/24 08:21:40;;;;;;;4.87;4.50;;;;;;;26.15;44.46;94990.34;6113825;28;104055;-57
2022/06/24 08:24:43;;;;;;;5.07;4.63;;;;;;;26.18;44.88;94986.22;6113684;28;104502;-57
2022/06/24 08:28:06;;;;;;;4.70;4.30;;;;;;;26.11;45.26;94986.78;6114191;28;106407;-57
2022/06/24 08:31:09;;;;;;;5.43;5.00;;;;;;;25.97;45.25;94986.28;6102745;28;103724;-57
2022/06/24 08:34:15;;;;;;;5.40;4.90;;;;;;;25.92;45.08;94991.84;6113616;28;104329;-57
2022/06/24 08:37:18;;;;;;;5.83;5.33;;;;;;;25.86;44.91;94995.84;6113519;28;104793;-57
2022/06/24 08:40:22;;;;;;;4.60;4.20;;;;;;;25.93;44.71;94988.84;6123380;28;103851;-57
2022/06/24 08:43:26;;;;;;;5.00;4.60;;;;;;;26.13;44.81;94989.91;6132421;28;104009;-57
2022/06/24 08:46:29;;;;;;;5.40;5.00;;;;;;;26.21;44.87;94996.28;6137482;28;104230;-57
2022/06/24 08:49:34;;;;;;;4.50;4.10;;;;;;;26.28;45.22;94991.16;6137275;28;103707;-57
2022/06/24 08:52:37;;;;;;;8.77;5.30;;;;;;;26.09;45.44;94993.59;6127890;28;103478;-57
2022/06/24 08:55:50;;;;;;;5.47;5.03;;;;;;;25.96;44.98;94998.91;6136568;28;103736;-57
2022/06/24 08:58:55;;;;;;;4.87;4.27;;;;;;;25.92;44.80;95006.03;6136953;28;104518;-57
2022/06/24 09:01:58;;;;;;;5.10;4.67;;;;;;;25.86;44.26;94996.63;6136220;28;103943;-57
2022/06/24 09:05:09;;;;;;;5.97;4.40;;;;;;;25.98;44.30;94990.50;6126275;28;104904;-57
2022/06/24 09:08:14;;;;;;;5.70;5.30;;;;;;;26.15;44.12;94992.25;6136690;28;103919;-58
2022/06/24 09:11:18;;;;;;;6.00;5.40;;;;;;;26.22;44.03;94987.94;6137759;28;103798;-58
2022/06/24 09:14:21;;;;;;;5.07;4.67;;;;;;;26.25;44.16;94981.88;6132174;28;104135;-58
2022/06/24 09:17:29;;;;;;;4.60;4.30;;;;;;;26.24;43.67;94974.97;6131185;28;103925;-57
2022/06/24 09:20:34;;;;;;;5.73;5.10;;;;;;;26.26;43.91;94972.72;6136582;28;103726;-58
2022/06/24 09:23:55;;;;;;;5.20;4.80;;;;;;;26.32;43.54;94969.81;6137129;28;103835;-57
2022/06/24 09:27:00;;;;;;;6.03;4.80;;;;;;;26.31;43.88;94976.28;6125413;28;103282;-57
2022/06/24 09:30:04;;;;;;;5.10;4.70;;;;;;;26.30;43.51;94974.72;6136360;28;103758;-57
2022/06/24 09:33:09;;;;;;;5.40;5.00;;;;;;;26.26;43.42;94982.66;6135672;28;103891;-57
2022/06/24 09:36:35;;;;;;;4.77;4.37;;;;;;;26.21;43.61;94970.25;6136291;28;106220;-58
2022/06/24 09:39:38;;;;;;;4.03;3.73;;;;;;;26.25;43.35;94986.47;6117667;28;103986;-57
2022/06/24 09:42:41;;;;;;;5.30;4.90;;;;;;;26.20;43.52;94982.09;6112144;28;103990;-58
2022/06/24 09:45:46;;;;;;;4.77;4.37;;;;;;;26.19;43.46;94988.56;6112542;28;103949;-57
2022/06/24 09:48:50;;;;;;;5.80;5.30;;;;;;;26.23;43.00;94976.06;6105693;28;103997;-56
2022/06/24 09:51:56;;;;;;;4.93;4.53;;;;;;;26.21;43.45;94988.22;6109530;28;105591;-57
2022/06/24 09:55:00;;;;;;;4.97;4.67;;;;;;;26.22;43.62;94987.16;6112797;28;104763;-56
2022/06/24 09:58:05;;;;;;;5.00;4.70;;;;;;;26.24;43.47;94976.84;6111854;28;104075;-57
2022/06/24 10:01:07;;;;;;;4.80;4.40;;;;;;;26.14;43.52;94975.38;6101357;28;104750;-58
2022/06/24 10:04:13;;;;;;;4.80;4.37;;;;;;;26.01;43.55;94976.47;6111482;28;103729;-59
2022/06/24 10:07:20;;;;;;;5.90;5.30;;;;;;;25.93;43.95;94986.16;6111468;28;103936;-58
2022/06/24 10:10:23;;;;;;;5.40;4.90;;;;;;;25.90;44.02;94988.72;6112117;28;104721;-58
2022/06/24 10:13:27;;;;;;;5.53;5.03;;;;;;;25.95;43.15;94986.59;6101316;28;103737;-57
2022/06/24 10:16:31;;;;;;;6.30;5.80;;;;;;;25.99;43.48;94987.50;6111769;28;103767;-57
2022/06/24 10:19:36;;;;;;;6.50;5.90;;;;;;;26.08;43.55;94986.66;6110357;28;103866;-57
2022/06/24 10:22:44;;;;;;;6.53;6.03;;;;;;;26.09;42.90;94991.69;6107097;28;104451;-57
2022/06/24 10:25:54;;;;;;;7.07;6.57;;;;;;;26.04;42.75;95007.19;6107077;28;103699;-57
2022/06/24 10:29:18;;;;;;;8.20;7.50;;;;;;;26.00;43.20;95001.72;6111155;28;103795;-67
2022/06/24 10:32:21;;;;;;;7.13;6.63;;;;;;;26.01;42.76;94997.91;6111711;28;103545;-57
2022/06/24 10:35:24;;;;;;;7.00;6.40;;;;;;;26.02;43.00;94998.69;6099863;28;103889;-57
2022/06/24 10:38:36;;;;;;;8.30;7.50;;;;;;;26.00;42.64;94996.34;6111137;28;103755;-57
2022/06/24 10:41:41;;;;;;;7.97;7.20;;;;;;;26.03;42.47;94993.00;6111710;28;105099;-57
2022/06/24 10:45:00;;;;;;;8.00;7.30;;;;;;;26.01;42.66;94997.13;6111466;28;104178;-58
2022/06/24 10:48:03;;;;;;;8.57;7.87;;;;;;;26.01;42.28;94994.47;6104578;28;104912;-57
2022/06/24 10:51:13;;;;;;;7.13;6.63;;;;;;;25.99;41.91;94990.19;6111228;28;104893;-57
2022/06/24 10:54:21;;;;;;;8.20;7.50;;;;;;;26.02;41.43;94979.94;6111500;28;103892;-57
2022/06/24 10:57:25;;;;;;;7.40;6.80;;;;;;;26.02;41.80;94979.94;6099829;28;103857;-57
2022/06/24 11:00:48;;;;;;;7.60;7.10;;;;;;;26.01;41.76;94973.00;6111487;28;103482;-59
2022/06/24 11:03:53;;;;;;;7.67;7.03;;;;;;;25.99;41.74;94979.44;6111321;28;103731;-56
2022/06/24 11:07:15;;;;;;;7.77;7.17;;;;;;;25.98;41.38;94977.09;6110313;28;103723;-57
2022/06/24 11:10:22;;;;;;;7.03;6.50;;;;;;;26.00;41.45;94969.53;6100640;28;103692;-57
2022/06/24 11:13:26;;;;;;;8.37;7.77;;;;;;;25.99;41.88;94968.72;6111116;28;103829;-57
2022/06/24 11:16:29;;;;;;;8.10;7.07;;;;;;;25.99;41.83;94973.31;6110907;28;103744;-69
2022/06/24 11:19:39;;;;;;;7.07;6.57;;;;;;;25.99;41.23;94966.03;6105191;28;103830;-57
2022/06/24 11:22:43;;;;;;;7.37;6.77;;;;;;;26.00;41.81;94966.84;6108325;28;103862;-57
2022/06/24 11:25:50;;;;;;;6.87;6.27;;;;;;;25.98;41.50;94963.69;6110952;28;103682;-57
2022/06/24 11:28:55;;;;;;;6.77;6.17;;;;;;;25.96;41.56;94968.63;6110745;28;104123;-57
2022/06/24 11:31:58;;;;;;;7.00;6.40;;;;;;;25.96;41.67;94968.63;6102352;28;104001;-58
2022/06/24 11:35:01;;;;;;;6.37;5.87;;;;;;;25.94;41.67;94963.59;6114715;28;103726;-60
2022/06/24 11:38:07;;;;;;;6.27;5.77;;;;;;;25.94;41.38;94965.47;6113919;28;103992;-57
2022/06/24 11:41:11;;;;;;;5.90;5.40;;;;;;;25.93;41.71;94958.56;6136205;28;104027;-57
2022/06/24 11:44:37;;;;;;;5.70;5.30;;;;;;;25.94;41.74;94949.41;6128262;28;103413;-58
2022/06/24 11:47:48;;;;;;;6.00;5.60;;;;;;;25.94;41.37;94958.22;6138770;28;103871;-57
2022/06/24 11:50:52;;;;;;;6.03;5.53;;;;;;;25.94;41.54;94942.13;6138614;28;103707;-73
2022/06/24 11:53:57;;;;;;;5.70;5.20;;;;;;;25.93;41.52;94951.28;6128727;28;104842;-57
2022/06/24 11:57:02;;;;;;;5.83;5.27;;;;;;;25.93;41.36;94955.88;6137066;28;104665;-57
2022/06/24 12:00:06;;;;;;;5.73;5.23;;;;;;;25.93;41.49;94947.84;6138421;28;103954;-58
2022/06/24 12:03:11;;;;;;;6.20;5.60;;;;;;;25.92;41.42;94954.31;6138381;28;104967;-57
2022/06/24 12:06:15;;;;;;;5.33;4.93;;;;;;;25.93;41.66;94953.19;6129335;28;103995;-57
2022/06/24 12:09:19;;;;;;;5.77;5.20;;;;;;;25.91;41.83;94942.03;6137700;28;103941;-58
2022/06/24 12:12:23;;;;;;;5.23;4.83;;;;;;;25.91;41.72;94953.53;6137931;28;103893;-57
2022/06/24 12:15:33;;;;;;;5.03;4.63;;;;;;;25.91;41.72;94947.38;6137934;28;103820;-57
2022/06/24 12:18:37;;;;;;;5.70;5.20;;;;;;;25.91;41.83;94955.44;6127330;28;104152;-58
2022/06/24 12:21:40;;;;;;;5.50;5.10;;;;;;;25.94;42.44;94960.13;6138158;28;104204;-57
2022/06/24 12:24:43;;;;;;;5.10;4.70;;;;;;;25.91;41.48;94956.22;6138156;28;103727;-58
2022/06/24 12:27:49;;;;;;;3.87;3.47;;;;;;;25.91;41.05;94961.56;6132782;28;105119;-55
2022/06/24 12:31:00;;;;;;;4.03;3.40;;;;;;;25.90;40.94;94969.94;6136404;28;103715;-57
2022/06/24 12:34:03;;;;;;;6.20;5.70;;;;;;;25.91;41.54;94961.56;6137683;28;103931;-58
2022/06/24 12:37:08;;;;;;;5.27;4.87;;;;;;;25.92;40.87;94967.72;6137989;28;103763;-59
2022/06/24 12:40:22;;;;;;;6.37;5.87;;;;;;;25.92;41.07;94968.50;6113000;28;104256;-57
2022/06/24 12:43:27;;;;;;;6.10;5.60;;;;;;;25.93;41.23;94963.91;6112664;28;103811;-58
2022/06/24 12:50:34;;;;;;;6.00;5.50;;;;;;;25.92;41.31;94959.69;6113783;28;104859;-52
2022/06/24 12:53:28;;;;;;;6.90;6.37;;;;;;;25.93;41.41;94969.28;6108156;28;104900;-51
2022/06/24 12:56:32;;;;;;;6.50;5.90;;;;;;;25.93;41.73;94966.59;6112368;28;103965;-51
2022/06/24 12:59:37;;;;;;;5.63;5.23;;;;;;;25.92;41.59;94962.34;6112590;28;103867;-76
2022/06/24 13:02:44;;;;;;;5.37;4.97;;;;;;;25.92;41.48;94954.31;6102717;28;103742;-51
2022/06/24 13:05:47;;;;;;;5.47;5.07;;;;;;;25.93;41.73;94953.97;6113203;28;103836;-52
2022/06/24 13:08:51;;;;;;;5.97;5.50;;;;;;;25.94;41.98;94954.75;6112905;28;103757;-52
2022/06/24 13:11:54;;;;;;;5.57;5.07;;;;;;;25.93;41.64;94948.63;6112447;28;105117;-52
2022/06/24 13:14:58;;;;;;;4.97;4.57;;;;;;;25.93;41.83;94950.50;6103264;28;104040;-53
2022/06/24 13:18:02;;;;;;;5.47;5.00;;;;;;;25.92;41.64;94948.94;6112455;28;104374;-53
2022/06/24 13:21:05;;;;;;;4.50;4.10;;;;;;;25.94;42.08;94946.72;6112709;28;103911;-52
2022/06/24 13:24:08;;;;;;;5.10;4.30;;;;;;;25.94;41.77;94936.00;6108640;28;105075;-54
2022/06/24 13:27:12;;;;;;;5.50;5.00;;;;;;;25.93;42.28;94937.09;6107700;28;104131;-48
2022/06/24 13:30:16;;;;;;;5.10;4.70;;;;;;;25.93;41.96;94932.53;6113833;28;104582;-50
2022/06/24 13:33:20;;;;;;;4.23;3.93;;;;;;;25.92;42.11;94930.19;6112476;28;103754;-51
2022/06/24 13:36:23;;;;;;;5.10;4.60;;;;;;;25.92;42.24;94930.19;6101990;28;107116;-49
2022/06/24 13:39:27;;;;;;;5.37;4.97;;;;;;;25.92;42.31;94928.28;6119494;28;104103;-49
2022/06/24 13:42:32;;;;;;;4.63;4.33;;;;;;;25.93;41.72;94929.06;6135800;28;104009;-49
2022/06/24 13:45:37;;;;;;;4.87;4.47;;;;;;;25.93;42.15;94921.03;6136427;28;103903;-49
2022/06/24 13:48:40;;;;;;;4.17;3.90;;;;;;;25.92;41.89;94922.91;6125424;28;103782;-49
2022/06/24 13:51:43;;;;;;;5.00;4.40;;;;;;;25.93;42.49;94918.34;6136744;28;104045;-48
2022/06/24 13:54:46;;;;;;;4.60;4.20;;;;;;;25.93;42.36;94916.44;6136507;28;104197;-54
2022/06/24 13:57:50;;;;;;;4.43;4.03;;;;;;;25.92;41.92;94914.88;6134208;28;103812;-50
2022/06/24 14:00:56;;;;;;;4.10;3.80;;;;;;;25.92;42.87;94914.09;6129055;28;103772;-54
2022/06/24 14:03:59;;;;;;;4.37;3.97;;;;;;;25.92;42.36;94904.16;6135975;28;103715;-50
2022/06/24 14:07:03;;;;;;;4.47;4.17;;;;;;;25.93;42.50;94903.03;6136168;28;103866;-50
2022/06/24 14:10:07;;;;;;;4.40;4.17;;;;;;;25.93;42.19;94894.22;6126116;28;104332;-50
2022/06/24 14:13:28;;;;;;;4.10;3.80;;;;;;;25.91;42.70;94891.88;6135794;28;105106;-49
2022/06/24 14:16:32;;;;;;;4.40;4.10;;;;;;;25.92;42.42;94895.31;6135486;28;104562;-49
2022/06/24 14:19:54;;;;;;;4.87;4.47;;;;;;;25.92;42.72;94900.69;6135601;28;103901;-49
2022/06/24 14:26:14;;;;;;;4.80;4.40;;;;;;;25.92;42.67;94895.31;6092415;28;104117;-49
2022/06/24 14:29:17;;;;;;;4.70;4.30;;;;;;;25.92;42.66;94903.38;6135823;28;105129;-54
2022/06/24 14:32:22;;;;;;;4.10;3.80;;;;;;;25.92;41.96;94898.00;6130079;28;104086;-50